Time;durP1;ratioP1;P1;durP2;ratioP2;P2;SDS_P1;SDS_P2;PMS_P1;PMS_P2;Temp;Humidity;BMP_temperature;BMP_pressure;BME280_temperature;BME280_humidity;BME280_pressure;Samples;Min_cycle;Max_cycle;Signal;HPM_P1;HPM_P2
2021/12/28 00:00:28;;;;;;;0.00;0.00;;;7.20;94.40;;;;;;4179042;28;20554;-62
2021/12/28 00:02:51;;;;;;;0.00;0.00;;;7.20;94.50;;;;;;4179805;28;20052;-62
2021/12/28 00:05:15;;;;;;;0.00;0.00;;;7.20;94.40;;;;;;4179614;28;20041;-63
2021/12/28 00:07:38;;;;;;;0.00;0.00;;;7.20;94.40;;;;;;4179691;28;20416;-62
2021/12/28 00:10:00;;;;;;;0.00;0.00;;;7.10;94.50;;;;;;4179338;28;20137;-62
2021/12/28 00:12:23;;;;;;;0.00;0.00;;;7.00;94.40;;;;;;4165853;28;20049;-62
2021/12/28 00:15:04;;;;;;;0.00;0.00;;;6.90;94.40;;;;;;4179633;28;20049;-61
2021/12/28 00:20:08;;;;;;;0.00;0.00;;;6.40;95.10;;;;;;4178887;28;20542;-62
2021/12/28 00:22:30;;;;;;;0.00;0.00;;;6.30;95.60;;;;;;4179188;28;20045;-62
2021/12/28 00:24:52;;;;;;;0.00;0.00;;;6.10;95.80;;;;;;4179602;28;20049;-62
2021/12/28 00:27:15;;;;;;;0.00;0.00;;;6.20;96.00;;;;;;4179461;28;20139;-62
2021/12/28 00:29:37;;;;;;;0.00;0.00;;;6.30;95.90;;;;;;4179280;28;20103;-61
2021/12/28 00:31:59;;;;;;;0.00;0.00;;;6.40;95.70;;;;;;4178813;28;20073;-62
2021/12/28 00:34:22;;;;;;;0.00;0.00;;;6.50;95.40;;;;;;4179480;28;20049;-62
2021/12/28 00:36:45;;;;;;;0.00;0.00;;;6.70;95.10;;;;;;4179168;28;20102;-62
2021/12/28 00:39:07;;;;;;;0.00;0.00;;;6.70;94.90;;;;;;4178958;28;20132;-62
2021/12/28 00:41:29;;;;;;;0.00;0.00;;;6.80;94.70;;;;;;4178798;28;20041;-61
2021/12/28 00:43:52;;;;;;;0.00;0.00;;;6.90;94.50;;;;;;4178689;28;20135;-63
2021/12/28 00:46:14;;;;;;;0.00;0.00;;;6.80;94.30;;;;;;4178939;28;20048;-63
2021/12/28 00:48:37;;;;;;;0.00;0.00;;;6.60;94.40;;;;;;4179099;28;20114;-63
2021/12/28 00:51:00;;;;;;;0.00;0.00;;;6.40;94.60;;;;;;4178857;28;20183;-61
2021/12/28 00:53:23;;;;;;;0.00;0.00;;;6.30;94.90;;;;;;4165428;28;20136;-62
2021/12/28 00:55:45;;;;;;;0.00;0.00;;;6.20;95.10;;;;;;4192835;28;20136;-62
2021/12/28 00:58:08;;;;;;;0.00;0.00;;;6.10;95.30;;;;;;4161994;28;20042;-62
2021/12/28 01:00:33;;;;;;;0.00;0.00;;;6.10;95.50;;;;;;4162378;28;20087;-63
2021/12/28 01:02:59;;;;;;;0.00;0.00;;;6.10;95.60;;;;;;4179175;28;20551;-65
2021/12/28 01:05:23;;;;;;;0.00;0.00;;;6.20;95.50;;;;;;4179526;28;20063;-63
2021/12/28 01:07:45;;;;;;;0.00;0.00;;;6.20;95.50;;;;;;4162188;28;20112;-63
2021/12/28 01:10:13;;;;;;;0.00;0.00;;;6.30;95.50;;;;;;4161336;28;20068;-63
2021/12/28 01:12:35;;;;;;;0.00;0.00;;;6.30;95.40;;;;;;4161787;28;20064;-61
2021/12/28 01:15:02;;;;;;;0.00;0.00;;;6.40;95.50;;;;;;4162181;28;20557;-62
2021/12/28 01:17:25;;;;;;;0.00;0.00;;;6.40;95.30;;;;;;4175990;28;20056;-62
2021/12/28 01:19:47;;;;;;;0.00;0.00;;;6.40;95.40;;;;;;4161647;28;20077;-63
2021/12/28 01:22:10;;;;;;;0.00;0.00;;;6.40;95.40;;;;;;4161710;28;20041;-62
2021/12/28 01:24:32;;;;;;;0.00;0.00;;;6.50;95.30;;;;;;4175468;28;20037;-63
2021/12/28 01:26:55;;;;;;;0.00;0.00;;;6.50;95.20;;;;;;4162081;28;20050;-63
2021/12/28 01:29:17;;;;;;;0.00;0.00;;;6.50;95.30;;;;;;4148185;28;20121;-63
2021/12/28 01:31:40;;;;;;;0.00;0.00;;;6.50;95.40;;;;;;4161595;28;20582;-63
2021/12/28 01:34:04;;;;;;;0.00;0.00;;;6.60;95.20;;;;;;4175548;28;20415;-63
2021/12/28 01:36:26;;;;;;;0.00;0.00;;;6.60;95.20;;;;;;4161800;28;20136;-62
2021/12/28 01:38:49;;;;;;;0.00;0.00;;;6.50;95.30;;;;;;4175403;28;20096;-63
2021/12/28 01:41:11;;;;;;;0.00;0.00;;;6.40;95.30;;;;;;4161457;28;20053;-61
2021/12/28 01:43:33;;;;;;;0.00;0.00;;;6.30;95.60;;;;;;4161840;28;20500;-62
2021/12/28 01:45:59;;;;;;;0.00;0.00;;;6.30;95.90;;;;;;4177944;28;20072;-62
2021/12/28 01:48:28;;;;;;;0.00;0.00;;;6.40;95.70;;;;;;4192035;28;20045;-62
2021/12/28 01:50:53;;;;;;;0.00;0.00;;;6.30;95.70;;;;;;4177923;28;20048;-62
2021/12/28 01:53:16;;;;;;;0.00;0.00;;;6.30;95.80;;;;;;4178078;28;20080;-62
2021/12/28 01:55:40;;;;;;;0.00;0.00;;;6.20;95.90;;;;;;4177875;28;20045;-62
2021/12/28 01:58:04;;;;;;;0.00;0.00;;;6.20;95.80;;;;;;4177460;28;20080;-62
2021/12/28 02:00:26;;;;;;;0.00;0.00;;;6.20;95.80;;;;;;4177852;28;20055;-62
2021/12/28 02:02:50;;;;;;;0.00;0.00;;;6.30;95.80;;;;;;4177943;28;20061;-62
2021/12/28 02:05:12;;;;;;;0.00;0.00;;;6.30;95.80;;;;;;4164129;28;20045;-62
2021/12/28 02:07:35;;;;;;;0.00;0.00;;;6.30;95.80;;;;;;4177829;28;20041;-62
2021/12/28 02:09:57;;;;;;;0.00;0.00;;;6.20;95.80;;;;;;4147093;28;20085;-63
2021/12/28 02:12:19;;;;;;;0.00;0.00;;;6.40;95.80;;;;;;4161013;28;20164;-62
2021/12/28 02:14:44;;;;;;;0.00;0.00;;;6.40;95.60;;;;;;4175137;28;20071;-62
2021/12/28 02:17:07;;;;;;;0.00;0.00;;;6.50;95.40;;;;;;4175316;28;20072;-62
2021/12/28 02:19:29;;;;;;;0.00;0.00;;;6.60;95.40;;;;;;4161222;28;20080;-62
2021/12/28 02:21:51;;;;;;;0.00;0.00;;;6.70;95.20;;;;;;4159948;28;20104;-63
2021/12/28 02:24:16;;;;;;;0.00;0.00;;;6.90;95.00;;;;;;4174894;28;20075;-62
2021/12/28 02:26:38;;;;;;;0.00;0.00;;;7.00;94.80;;;;;;4160998;28;20046;-62
2021/12/28 02:29:01;;;;;;;0.00;0.00;;;7.00;94.60;;;;;;4174905;28;20124;-62
2021/12/28 02:31:25;;;;;;;0.00;0.00;;;7.00;94.50;;;;;;4160862;28;20083;-62
2021/12/28 02:33:48;;;;;;;0.00;0.00;;;6.80;94.60;;;;;;4160865;28;20057;-62
2021/12/28 02:36:11;;;;;;;0.00;0.00;;;6.70;94.80;;;;;;4174874;28;20053;-61
2021/12/28 02:38:34;;;;;;;0.00;0.00;;;6.80;94.90;;;;;;4161077;28;20392;-62
2021/12/28 02:40:57;;;;;;;0.00;0.00;;;6.90;94.70;;;;;;4174564;28;20571;-61
2021/12/28 02:43:20;;;;;;;0.00;0.00;;;7.00;94.50;;;;;;4160964;28;20057;-61
2021/12/28 02:45:50;;;;;;;0.00;0.00;;;7.00;94.30;;;;;;4160790;28;20049;-62
2021/12/28 02:48:14;;;;;;;0.00;0.00;;;6.90;94.30;;;;;;4150526;28;20489;-62
2021/12/28 02:50:48;;;;;;;0.00;0.00;;;6.80;94.50;;;;;;4150450;28;20136;-61
2021/12/28 02:53:11;;;;;;;0.00;0.00;;;6.70;94.50;;;;;;4177298;28;20411;-62
2021/12/28 02:55:37;;;;;;;0.00;0.00;;;6.70;94.60;;;;;;4191222;28;20045;-62
2021/12/28 02:58:03;;;;;;;0.00;0.00;;;6.70;94.50;;;;;;4176975;28;20131;-61
2021/12/28 03:00:45;;;;;;;0.00;0.00;;;6.70;94.60;;;;;;4177000;28;20075;-63
2021/12/28 03:03:14;;;;;;;0.00;0.00;;;6.60;94.70;;;;;;4177245;28;20045;-62
2021/12/28 03:05:38;;;;;;;0.00;0.00;;;6.80;94.70;;;;;;4191119;28;20067;-62
2021/12/28 03:08:01;;;;;;;0.00;0.00;;;6.90;94.50;;;;;;4174780;28;20061;-62
2021/12/28 03:10:23;;;;;;;0.00;0.00;;;6.90;94.40;;;;;;4160519;28;20042;-62
2021/12/28 03:12:45;;;;;;;0.00;0.00;;;7.00;94.30;;;;;;4146816;28;20317;-62
2021/12/28 03:15:08;;;;;;;0.00;0.00;;;7.10;94.30;;;;;;4160572;28;20042;-63
2021/12/28 03:17:31;;;;;;;0.00;0.00;;;7.10;94.20;;;;;;4160636;28;20050;-62
2021/12/28 03:19:53;;;;;;;0.00;0.00;;;7.00;94.30;;;;;;4175620;28;20045;-63
2021/12/28 03:22:16;;;;;;;0.00;0.00;;;7.10;94.20;;;;;;4160616;28;20045;-62
2021/12/28 03:24:38;;;;;;;0.00;0.00;;;7.20;94.10;;;;;;4172179;28;20058;-63
2021/12/28 03:27:00;;;;;;;0.00;0.00;;;7.20;94.00;;;;;;4166716;28;20054;-62
2021/12/28 03:29:23;;;;;;;0.00;0.00;;;7.30;94.10;;;;;;4160471;28;20049;-62
2021/12/28 03:31:46;;;;;;;0.00;0.00;;;7.30;94.10;;;;;;4146443;28;20057;-62
2021/12/28 03:34:09;;;;;;;0.00;0.00;;;7.30;94.00;;;;;;4162121;28;20045;-63
2021/12/28 03:36:32;;;;;;;0.00;0.00;;;7.30;94.00;;;;;;4163754;28;20053;-62
2021/12/28 03:38:56;;;;;;;0.00;0.00;;;7.30;94.10;;;;;;4177209;28;20071;-62
2021/12/28 03:41:20;;;;;;;0.00;0.00;;;7.30;94.20;;;;;;4163387;28;20125;-62
2021/12/28 03:43:45;;;;;;;0.00;0.00;;;7.30;94.30;;;;;;4163644;28;20057;-63
2021/12/28 03:46:08;;;;;;;0.00;0.00;;;7.30;94.40;;;;;;4163052;28;20122;-62
2021/12/28 03:48:32;;;;;;;0.00;0.00;;;7.20;94.40;;;;;;4163676;28;20046;-62
2021/12/28 03:50:54;;;;;;;0.00;0.00;;;7.20;94.60;;;;;;4163219;28;20061;-62
2021/12/28 03:53:18;;;;;;;0.00;0.00;;;7.20;94.70;;;;;;4162641;28;20081;-62
2021/12/28 03:55:40;;;;;;;0.00;0.00;;;7.10;94.90;;;;;;4194954;28;20052;-62
2021/12/28 03:58:04;;;;;;;0.00;0.00;;;7.10;95.00;;;;;;4182196;28;20113;-63
2021/12/28 04:00:30;;;;;;;0.00;0.00;;;7.20;94.70;;;;;;4196371;28;20618;-63
2021/12/28 04:02:54;;;;;;;0.00;0.00;;;6.90;95.10;;;;;;4196237;28;20513;-62
2021/12/28 04:05:17;;;;;;;0.00;0.00;;;6.90;95.40;;;;;;4196214;28;20084;-62
2021/12/28 04:07:40;;;;;;;0.00;0.00;;;7.00;95.40;;;;;;4196292;28;20087;-62
2021/12/28 04:10:04;;;;;;;0.00;0.00;;;7.20;95.30;;;;;;4181916;28;20118;-62
2021/12/28 04:12:28;;;;;;;0.00;0.00;;;7.30;95.10;;;;;;4195809;28;20138;-62
2021/12/28 04:14:50;;;;;;;0.00;0.00;;;7.30;94.90;;;;;;4196049;28;20127;-62
2021/12/28 04:17:13;;;;;;;0.00;0.00;;;7.40;94.80;;;;;;4195931;28;20044;-63
2021/12/28 04:19:35;;;;;;;0.00;0.00;;;7.40;94.70;;;;;;4195917;28;20044;-62
2021/12/28 04:21:57;;;;;;;0.00;0.00;;;7.40;94.60;;;;;;4195237;28;20048;-63
2021/12/28 04:24:20;;;;;;;0.00;0.00;;;7.40;94.60;;;;;;4195973;28;20051;-62
2021/12/28 04:26:42;;;;;;;0.00;0.00;;;7.50;94.50;;;;;;4195710;28;20045;-62
2021/12/28 04:29:05;;;;;;;0.00;0.00;;;7.50;94.40;;;;;;4195874;28;20068;-62
2021/12/28 04:31:27;;;;;;;0.00;0.00;;;7.60;94.40;;;;;;4195529;28;20048;-62
2021/12/28 04:33:49;;;;;;;0.00;0.00;;;7.70;94.20;;;;;;4195375;28;20053;-62
2021/12/28 04:36:15;;;;;;;0.00;0.00;;;7.70;94.10;;;;;;4195664;28;20048;-63
2021/12/28 04:38:38;;;;;;;0.00;0.00;;;7.70;94.00;;;;;;4195431;28;20049;-63
2021/12/28 04:41:01;;;;;;;0.00;0.00;;;7.70;94.10;;;;;;4195461;28;20041;-62
2021/12/28 04:43:23;;;;;;;0.00;0.00;;;7.60;94.00;;;;;;4195573;28;20051;-62
2021/12/28 04:45:46;;;;;;;0.00;0.00;;;7.60;94.00;;;;;;4194915;28;20045;-62
2021/12/28 04:48:08;;;;;;;0.00;0.00;;;7.60;94.20;;;;;;4195184;28;20076;-62
2021/12/28 04:50:37;;;;;;;0.00;0.00;;;7.70;94.10;;;;;;4181491;28;20037;-62
2021/12/28 04:53:03;;;;;;;0.00;0.00;;;7.70;94.00;;;;;;4181510;28;20066;-62
2021/12/28 04:55:25;;;;;;;0.00;0.00;;;7.70;93.90;;;;;;4195385;28;20123;-62
2021/12/28 04:57:48;;;;;;;0.00;0.00;;;7.70;93.90;;;;;;4195059;28;20052;-63
2021/12/28 05:00:17;;;;;;;0.00;0.00;;;7.70;93.90;;;;;;4181755;28;20044;-63
2021/12/28 05:02:39;;;;;;;0.00;0.00;;;7.80;93.80;;;;;;4195194;28;20109;-62
2021/12/28 05:05:05;;;;;;;0.00;0.00;;;7.80;93.80;;;;;;4195232;28;20055;-63
2021/12/28 05:07:28;;;;;;;0.00;0.00;;;7.70;93.80;;;;;;4209130;28;20063;-63
2021/12/28 05:09:50;;;;;;;0.00;0.00;;;7.70;94.00;;;;;;4208844;28;20044;-63
2021/12/28 05:12:13;;;;;;;0.00;0.00;;;7.60;94.00;;;;;;4194918;28;20159;-63
2021/12/28 05:14:39;;;;;;;0.00;0.00;;;7.70;94.10;;;;;;4195154;28;20052;-64
2021/12/28 05:17:03;;;;;;;0.00;0.00;;;7.70;94.10;;;;;;4195180;28;20123;-63
2021/12/28 05:19:26;;;;;;;0.00;0.00;;;7.70;94.10;;;;;;4209131;28;20074;-62
2021/12/28 05:21:48;;;;;;;0.00;0.00;;;7.70;94.00;;;;;;4208679;28;20082;-63
2021/12/28 05:24:11;;;;;;;0.00;0.00;;;7.70;94.00;;;;;;4194939;28;20094;-62
2021/12/28 05:26:33;;;;;;;0.00;0.00;;;7.70;94.10;;;;;;4195040;28;20063;-62
2021/12/28 05:28:56;;;;;;;0.00;0.00;;;7.70;94.10;;;;;;4194847;28;20422;-62
2021/12/28 05:31:19;;;;;;;0.00;0.00;;;7.80;94.10;;;;;;4194774;28;20064;-62
2021/12/28 05:33:41;;;;;;;0.00;0.00;;;7.90;94.00;;;;;;4194897;28;20063;-63
2021/12/28 05:36:04;;;;;;;0.00;0.00;;;7.90;93.90;;;;;;4194723;28;20049;-63
2021/12/28 05:38:28;;;;;;;0.00;0.00;;;7.90;93.90;;;;;;4194695;28;20048;-62
2021/12/28 05:40:50;;;;;;;0.00;0.00;;;8.00;93.90;;;;;;4194749;28;20048;-63
2021/12/28 05:43:14;;;;;;;0.00;0.00;;;8.00;93.90;;;;;;4194979;28;20571;-63
2021/12/28 05:45:36;;;;;;;0.00;0.00;;;8.00;93.80;;;;;;4194948;28;20124;-63
2021/12/28 05:47:58;;;;;;;0.00;0.00;;;8.00;93.90;;;;;;4194441;28;20049;-63
2021/12/28 05:50:21;;;;;;;0.00;0.00;;;8.00;93.90;;;;;;4195031;28;20064;-62
2021/12/28 05:52:47;;;;;;;0.00;0.00;;;8.00;93.90;;;;;;4208671;28;20059;-62
2021/12/28 05:55:09;;;;;;;0.00;0.00;;;8.00;93.80;;;;;;4194748;28;20055;-62
2021/12/28 05:57:32;;;;;;;0.00;0.00;;;8.00;94.20;;;;;;4193656;28;20041;-62
2021/12/28 05:59:54;;;;;;;0.00;0.00;;;7.90;94.20;;;;;;4194185;28;20059;-63
2021/12/28 06:02:17;;;;;;;0.00;0.00;;;8.00;94.30;;;;;;4194342;28;20116;-62
2021/12/28 06:04:39;;;;;;;0.00;0.00;;;8.00;94.20;;;;;;4194744;28;20110;-62
2021/12/28 06:07:02;;;;;;;0.00;0.00;;;8.00;94.20;;;;;;4194553;28;20056;-62
2021/12/28 06:09:25;;;;;;;0.00;0.00;;;8.00;94.20;;;;;;4194475;28;20051;-62
2021/12/28 06:11:47;;;;;;;0.00;0.00;;;8.00;94.20;;;;;;4193842;28;20426;-62
2021/12/28 06:14:10;;;;;;;0.00;0.00;;;7.90;94.60;;;;;;4194437;28;20040;-62
2021/12/28 06:16:34;;;;;;;0.00;0.00;;;8.00;94.60;;;;;;4194569;28;20052;-62
2021/12/28 06:18:57;;;;;;;0.00;0.00;;;8.00;94.40;;;;;;4208454;28;20040;-63
2021/12/28 06:21:19;;;;;;;0.00;0.00;;;7.90;94.50;;;;;;4194110;28;20094;-61
2021/12/28 06:23:42;;;;;;;0.00;0.00;;;7.80;94.70;;;;;;4194318;28;20052;-65
2021/12/28 06:26:04;;;;;;;0.00;0.00;;;7.70;95.00;;;;;;4194045;28;20064;-61
2021/12/28 06:28:27;;;;;;;0.00;0.00;;;7.60;95.20;;;;;;4194334;28;20072;-61
2021/12/28 06:30:49;;;;;;;0.00;0.00;;;7.50;95.60;;;;;;4179940;28;20044;-61
2021/12/28 06:33:12;;;;;;;0.00;0.00;;;7.50;95.60;;;;;;4194135;28;20488;-61
2021/12/28 06:35:34;;;;;;;0.00;0.00;;;7.40;95.80;;;;;;4194152;28;20040;-61
2021/12/28 06:37:57;;;;;;;0.00;0.00;;;7.30;96.10;;;;;;4193771;28;20135;-61
2021/12/28 06:40:19;;;;;;;0.00;0.00;;;7.30;96.30;;;;;;4193770;28;20046;-62
2021/12/28 06:42:41;;;;;;;0.00;0.00;;;7.30;96.40;;;;;;4208130;28;20048;-62
2021/12/28 06:45:05;;;;;;;0.00;0.00;;;7.20;96.50;;;;;;4193977;28;20116;-61
2021/12/28 06:47:28;;;;;;;0.00;0.00;;;7.10;96.70;;;;;;4194096;28;20060;-61
2021/12/28 06:49:50;;;;;;;0.00;0.00;;;7.10;96.90;;;;;;4179707;28;20079;-62
2021/12/28 06:52:13;;;;;;;0.00;0.00;;;7.00;97.10;;;;;;4179731;28;20114;-62
2021/12/28 06:54:37;;;;;;;0.00;0.00;;;6.90;97.20;;;;;;4194167;28;20111;-62
2021/12/28 06:57:00;;;;;;;0.00;0.00;;;6.90;97.40;;;;;;4193945;28;20049;-62
2021/12/28 06:59:22;;;;;;;0.00;0.00;;;7.00;97.40;;;;;;4193952;28;20087;-63
2021/12/28 07:01:44;;;;;;;0.00;0.00;;;7.10;97.10;;;;;;4193623;28;20040;-62
2021/12/28 07:04:07;;;;;;;0.00;0.00;;;7.00;97.10;;;;;;4193464;28;20098;-62
2021/12/28 07:06:29;;;;;;;0.00;0.00;;;7.00;97.30;;;;;;4194040;28;20468;-62
2021/12/28 07:08:52;;;;;;;0.00;0.00;;;7.10;97.20;;;;;;4209568;28;20078;-62
2021/12/28 07:11:15;;;;;;;0.00;0.00;;;7.30;97.10;;;;;;4197073;28;20037;-62
2021/12/28 07:13:37;;;;;;;0.00;0.00;;;7.40;96.70;;;;;;4183382;28;20411;-62
2021/12/28 07:16:00;;;;;;;0.00;0.00;;;7.30;96.50;;;;;;4196907;28;20052;-62
2021/12/28 07:18:22;;;;;;;0.00;0.00;;;7.20;96.70;;;;;;4197251;28;20044;-62
2021/12/28 07:20:44;;;;;;;0.00;0.00;;;7.20;96.70;;;;;;4196811;28;20106;-62
2021/12/28 07:23:07;;;;;;;0.00;0.00;;;7.20;96.70;;;;;;4197259;28;20056;-62
2021/12/28 07:25:29;;;;;;;0.00;0.00;;;7.20;96.60;;;;;;4197008;28;20428;-62
2021/12/28 07:27:52;;;;;;;0.00;0.00;;;7.20;96.80;;;;;;4196646;28;20098;-63
2021/12/28 07:30:14;;;;;;;0.00;0.00;;;7.30;96.70;;;;;;4197080;28;20437;-62
2021/12/28 07:32:37;;;;;;;0.00;0.00;;;7.20;96.80;;;;;;4196824;28;20111;-62
2021/12/28 07:34:59;;;;;;;0.00;0.00;;;7.10;96.90;;;;;;4196781;28;20044;-62
2021/12/28 07:37:21;;;;;;;0.00;0.00;;;7.00;96.80;;;;;;4196743;28;20169;-62
2021/12/28 07:39:44;;;;;;;0.00;0.00;;;6.90;97.00;;;;;;4210433;28;20054;-62
2021/12/28 07:42:06;;;;;;;0.00;0.00;;;6.90;97.20;;;;;;4196110;28;20045;-62
2021/12/28 07:44:29;;;;;;;0.00;0.00;;;7.00;97.10;;;;;;4196646;28;20425;-62
2021/12/28 07:46:51;;;;;;;0.00;0.00;;;6.90;97.20;;;;;;4210998;28;20044;-72
2021/12/28 07:49:14;;;;;;;0.00;0.00;;;7.00;97.10;;;;;;4196460;28;20072;-69
2021/12/28 07:51:37;;;;;;;0.00;0.00;;;7.00;96.90;;;;;;4196022;28;20434;-71
2021/12/28 07:53:59;;;;;;;0.00;0.00;;;6.90;97.00;;;;;;4196745;28;20080;-73
2021/12/28 07:56:21;;;;;;;0.00;0.00;;;6.90;97.00;;;;;;4196726;28;20048;-75
2021/12/28 07:58:44;;;;;;;0.00;0.00;;;7.00;97.00;;;;;;4196558;28;20139;-73
2021/12/28 08:01:06;;;;;;;0.00;0.00;;;7.10;96.90;;;;;;4210177;28;20056;-70
2021/12/28 08:03:29;;;;;;;0.00;0.00;;;7.00;96.80;;;;;;4196420;28;20152;-74
2021/12/28 08:05:52;;;;;;;0.00;0.00;;;7.00;96.90;;;;;;4210026;28;20139;-73
2021/12/28 08:08:15;;;;;;;0.00;0.00;;;7.00;97.00;;;;;;4196669;28;20040;-74
2021/12/28 08:10:37;;;;;;;0.00;0.00;;;7.10;96.90;;;;;;4196298;28;20051;-68
2021/12/28 08:13:00;;;;;;;0.00;0.00;;;7.20;97.10;;;;;;4196483;28;20044;-62
2021/12/28 08:15:24;;;;;;;0.00;0.00;;;7.30;96.60;;;;;;4196285;28;20049;-62
2021/12/28 08:17:46;;;;;;;0.00;0.00;;;7.30;96.40;;;;;;4210049;28;20196;-63
2021/12/28 08:20:11;;;;;;;0.00;0.00;;;7.30;96.30;;;;;;4194936;28;20049;-62
2021/12/28 08:22:35;;;;;;;0.00;0.00;;;7.20;96.30;;;;;;4196183;28;20072;-63
2021/12/28 08:24:59;;;;;;;0.00;0.00;;;7.20;96.50;;;;;;4196185;28;20627;-62
2021/12/28 08:27:22;;;;;;;0.00;0.00;;;7.40;96.60;;;;;;4196192;28;20169;-62
2021/12/28 08:29:45;;;;;;;0.00;0.00;;;7.50;96.20;;;;;;4195985;28;20410;-67
2021/12/28 08:32:07;;;;;;;0.00;0.00;;;7.70;96.20;;;;;;4195675;28;20051;-62
2021/12/28 08:34:30;;;;;;;0.00;0.00;;;7.80;96.00;;;;;;4189826;28;20438;-63
2021/12/28 08:36:52;;;;;;;0.00;0.00;;;8.00;95.90;;;;;;4167383;28;20099;-62
2021/12/28 08:39:16;;;;;;;0.00;0.00;;;8.20;95.70;;;;;;4162869;28;20076;-62
2021/12/28 08:41:39;;;;;;;0.00;0.00;;;8.30;95.50;;;;;;4162498;28;20422;-62
2021/12/28 08:44:02;;;;;;;0.00;0.00;;;8.50;95.40;;;;;;4177011;28;20497;-67
2021/12/28 08:46:24;;;;;;;0.00;0.00;;;8.60;95.20;;;;;;4162585;28;20104;-65
2021/12/28 08:48:47;;;;;;;0.00;0.00;;;8.60;95.00;;;;;;4162816;28;20886;-66
2021/12/28 08:51:10;;;;;;;0.00;0.00;;;8.60;95.10;;;;;;4148634;28;20041;-65
2021/12/28 08:53:33;;;;;;;0.00;0.00;;;8.40;94.90;;;;;;4177290;28;20041;-63
2021/12/28 08:55:55;;;;;;;0.00;0.00;;;8.40;95.20;;;;;;4178210;28;20048;-63
2021/12/28 08:58:17;;;;;;;0.00;0.00;;;8.20;95.10;;;;;;4179037;28;20047;-63
2021/12/28 09:00:44;;;;;;;0.00;0.00;;;8.30;95.50;;;;;;4178699;28;20057;-62
2021/12/28 09:03:07;;;;;;;0.00;0.00;;;8.30;95.10;;;;;;4193055;28;20843;-62
2021/12/28 09:05:35;;;;;;;0.00;0.00;;;8.20;95.20;;;;;;4178882;28;20041;-63
2021/12/28 09:07:58;;;;;;;0.00;0.00;;;8.10;95.20;;;;;;4178506;28;20083;-63
2021/12/28 09:10:22;;;;;;;0.00;0.00;;;8.10;95.20;;;;;;4192732;28;20092;-62
2021/12/28 09:12:44;;;;;;;0.00;0.00;;;7.90;95.10;;;;;;4164646;28;20480;-62
2021/12/28 09:15:08;;;;;;;0.00;0.00;;;7.90;95.40;;;;;;4178831;28;20147;-62
2021/12/28 09:17:33;;;;;;;0.00;0.00;;;7.90;95.20;;;;;;4192376;28;20059;-62
2021/12/28 09:19:55;;;;;;;0.00;0.00;;;8.00;95.20;;;;;;4178414;28;20060;-62
2021/12/28 09:22:20;;;;;;;0.00;0.00;;;7.90;95.00;;;;;;4178396;28;20079;-61
2021/12/28 09:24:43;;;;;;;0.00;0.00;;;8.00;95.40;;;;;;4178890;28;20055;-62
2021/12/28 09:27:11;;;;;;;0.00;0.00;;;8.10;95.00;;;;;;4178283;28;20045;-61
2021/12/28 09:29:35;;;;;;;0.00;0.00;;;8.00;95.00;;;;;;4164826;28;20434;-62
2021/12/28 09:31:59;;;;;;;0.00;0.00;;;8.10;95.00;;;;;;4177371;28;20122;-65
2021/12/28 09:34:22;;;;;;;0.00;0.00;;;8.20;95.10;;;;;;4178714;28;20045;-61
2021/12/28 09:36:51;;;;;;;0.00;0.00;;;8.30;94.90;;;;;;4178408;28;20041;-62
2021/12/28 09:39:14;;;;;;;0.00;0.00;;;8.30;94.80;;;;;;4178266;28;20136;-62
2021/12/28 09:41:37;;;;;;;0.00;0.00;;;8.40;95.00;;;;;;4177968;28;20053;-67
2021/12/28 09:43:59;;;;;;;0.00;0.00;;;8.50;95.20;;;;;;4163330;28;20467;-64
2021/12/28 09:46:21;;;;;;;0.00;0.00;;;8.60;95.00;;;;;;4178335;28;20045;-66
2021/12/28 09:48:44;;;;;;;0.00;0.00;;;8.60;95.10;;;;;;4192296;28;20056;-66
2021/12/28 09:51:07;;;;;;;0.00;0.00;;;8.60;95.20;;;;;;4177856;28;20068;-62
2021/12/28 09:53:30;;;;;;;0.00;0.00;;;8.70;95.40;;;;;;4178131;28;20131;-65
2021/12/28 09:55:52;;;;;;;0.00;0.00;;;8.50;95.30;;;;;;4174901;28;20576;-64
2021/12/28 09:58:15;;;;;;;0.00;0.00;;;8.50;95.20;;;;;;4161794;28;20041;-64
2021/12/28 10:00:57;;;;;;;0.00;0.00;;;8.30;95.10;;;;;;4161292;28;20620;-62
2021/12/28 10:03:21;;;;;;;0.00;0.00;;;8.20;95.30;;;;;;4175579;28;20049;-62
2021/12/28 10:05:44;;;;;;;0.00;0.00;;;8.20;95.20;;;;;;4147568;28;20046;-62
2021/12/28 10:08:07;;;;;;;0.00;0.00;;;8.30;95.10;;;;;;4177597;28;20503;-62
2021/12/28 10:10:38;;;;;;;0.00;0.00;;;8.40;94.70;;;;;;4178298;28;20044;-62
2021/12/28 10:13:08;;;;;;;0.00;0.00;;;8.20;94.60;;;;;;4178162;28;20593;-62
2021/12/28 10:15:35;;;;;;;0.00;0.00;;;8.10;94.90;;;;;;4178093;28;20041;-63
2021/12/28 10:18:01;;;;;;;0.00;0.00;;;8.10;95.30;;;;;;4176464;28;20041;-63
2021/12/28 10:20:28;;;;;;;0.00;0.00;;;8.30;95.30;;;;;;4191824;28;20048;-62
2021/12/28 10:22:58;;;;;;;0.00;0.00;;;8.40;95.30;;;;;;4177786;28;20049;-63
2021/12/28 10:25:33;;;;;;;0.00;0.00;;;8.50;95.30;;;;;;4177929;28;20045;-63
2021/12/28 10:28:12;;;;;;;0.00;0.00;;;8.60;95.40;;;;;;4177330;28;20057;-63
2021/12/28 10:30:43;;;;;;;0.00;0.00;;;8.80;95.50;;;;;;4177738;28;20053;-62
2021/12/28 10:33:11;;;;;;;0.00;0.00;;;9.70;95.20;;;;;;4177808;28;20041;-62
2021/12/28 10:35:38;;;;;;;0.00;0.00;;;10.60;93.80;;;;;;4177692;28;20132;-63
2021/12/28 10:38:04;;;;;;;0.00;0.00;;;10.80;93.20;;;;;;4177237;28;20049;-63
2021/12/28 10:40:31;;;;;;;0.00;0.00;;;11.30;93.00;;;;;;4177445;28;20049;-62
2021/12/28 10:43:03;;;;;;;0.00;0.00;;;11.90;92.00;;;;;;4176933;28;20087;-67
2021/12/28 10:45:27;;;;;;;;;;;12.00;90.80;;;;;;4178053;28;20041;-69
2021/12/28 10:47:53;;;;;;;0.00;0.00;;;11.70;90.90;;;;;;4163560;28;19955;-63
2021/12/28 10:50:34;;;;;;;0.00;0.00;;;11.40;90.50;;;;;;4177668;28;20033;-64
2021/12/28 10:53:12;;;;;;;0.00;0.00;;;11.00;90.90;;;;;;4177448;28;20576;-63
2021/12/28 10:55:35;;;;;;;0.00;0.00;;;10.70;91.40;;;;;;4177532;28;20053;-62
2021/12/28 10:57:57;;;;;;;0.00;0.00;;;10.50;91.50;;;;;;4177019;28;20049;-62
2021/12/28 11:00:26;;;;;;;0.00;0.00;;;10.40;91.30;;;;;;4177576;28;20099;-61
2021/12/28 11:02:49;;;;;;;0.00;0.00;;;10.30;91.40;;;;;;4177194;28;20508;-62
2021/12/28 11:05:32;;;;;;;0.00;0.00;;;10.10;91.50;;;;;;4177351;28;20045;-61
2021/12/28 11:07:58;;;;;;;0.00;0.00;;;9.90;91.70;;;;;;4176596;28;20076;-62
2021/12/28 11:10:27;;;;;;;0.00;0.00;;;9.80;92.00;;;;;;4191050;28;20452;-63
2021/12/28 11:12:50;;;;;;;0.00;0.00;;;9.70;92.30;;;;;;4177475;28;20045;-69
2021/12/28 11:15:12;;;;;;;0.00;0.00;;;9.70;92.30;;;;;;4177286;28;20053;-63
2021/12/28 11:17:35;;;;;;;0.00;0.00;;;9.80;92.40;;;;;;4177069;28;20056;-62
2021/12/28 11:19:58;;;;;;;0.00;0.00;;;9.90;92.40;;;;;;4175112;28;20049;-63
2021/12/28 11:22:21;;;;;;;0.00;0.00;;;9.90;92.70;;;;;;4160378;28;20045;-63
2021/12/28 11:24:47;;;;;;;0.00;0.00;;;9.80;93.00;;;;;;4160746;28;20046;-62
2021/12/28 11:27:19;;;;;;;0.00;0.00;;;9.50;93.10;;;;;;4160416;28;20053;-63
2021/12/28 11:29:51;;;;;;;0.00;0.00;;;9.30;93.10;;;;;;4176675;28;20052;-62
2021/12/28 11:32:17;;;;;;;0.00;0.00;;;9.30;93.10;;;;;;4191100;28;20135;-63
2021/12/28 11:34:40;;;;;;;0.00;0.00;;;9.00;93.50;;;;;;4177175;28;20045;-63
2021/12/28 11:37:27;;;;;;;0.00;0.00;;;9.10;93.40;;;;;;4191113;28;20040;-62
2021/12/28 11:39:56;;;;;;;0.00;0.00;;;9.00;93.50;;;;;;4160434;28;20518;-64
2021/12/28 11:42:21;;;;;;;0.00;0.00;;;9.20;93.50;;;;;;4176653;28;20531;-63
2021/12/28 11:44:43;;;;;;;0.00;0.00;;;9.30;93.30;;;;;;4177285;28;20053;-62
2021/12/28 11:47:08;;;;;;;0.00;0.00;;;9.20;93.40;;;;;;4190778;28;20098;-65
2021/12/28 11:49:31;;;;;;;0.00;0.00;;;9.30;93.60;;;;;;4176784;28;20140;-63
2021/12/28 11:51:58;;;;;;;0.00;0.00;;;9.30;93.30;;;;;;4176375;28;20132;-62
2021/12/28 11:54:23;;;;;;;0.00;0.00;;;9.40;93.30;;;;;;4177522;28;20060;-63
2021/12/28 11:56:55;;;;;;;0.00;0.00;;;9.40;93.40;;;;;;4180015;28;20060;-63
2021/12/28 11:59:18;;;;;;;0.00;0.00;;;9.50;93.40;;;;;;4166227;28;20525;-63
2021/12/28 12:01:46;;;;;;;0.00;0.00;;;9.70;93.30;;;;;;4179753;28;20124;-63
2021/12/28 12:04:31;;;;;;;0.00;0.00;;;9.80;93.10;;;;;;4179423;28;20099;-62
2021/12/28 12:06:57;;;;;;;0.00;0.00;;;9.90;93.00;;;;;;4179216;28;20076;-63
2021/12/28 12:09:19;;;;;;;0.00;0.00;;;9.70;93.00;;;;;;4179903;28;20077;-62
2021/12/28 12:12:08;;;;;;;0.00;0.00;;;9.60;93.30;;;;;;4179625;28;20041;-63
2021/12/28 12:15:08;;;;;;;0.00;0.00;;;9.70;93.60;;;;;;4102396;28;20536;-63
2021/12/28 12:17:33;;;;;;;0.00;0.00;;;9.70;93.70;;;;;;4052734;29;20570;-63
2021/12/28 12:20:04;;;;;;;0.00;0.00;;;9.70;93.90;;;;;;4051311;29;20048;-62
2021/12/28 12:22:30;;;;;;;0.00;0.00;;;9.80;93.80;;;;;;4052540;29;20097;-63
2021/12/28 12:24:53;;;;;;;0.00;0.00;;;9.80;94.10;;;;;;4052897;29;20083;-62
2021/12/28 12:27:49;;;;;;;0.00;0.00;;;9.90;94.10;;;;;;4052747;29;20044;-62
2021/12/28 12:30:20;;;;;;;0.00;0.00;;;9.80;94.20;;;;;;4052259;29;20926;-62
2021/12/28 12:33:08;;;;;;;0.00;0.00;;;9.90;94.30;;;;;;4052601;29;20048;-62
2021/12/28 12:35:35;;;;;;;0.00;0.00;;;9.90;94.40;;;;;;4052882;29;20457;-62
2021/12/28 12:38:02;;;;;;;0.00;0.00;;;9.80;94.50;;;;;;4052341;29;20092;-63
2021/12/28 12:40:59;;;;;;;0.00;0.00;;;9.70;94.70;;;;;;4052290;29;20040;-62
2021/12/28 12:43:23;;;;;;;0.00;0.00;;;9.60;94.90;;;;;;4052496;29;20056;-62
2021/12/28 12:45:55;;;;;;;0.00;0.00;;;9.60;94.90;;;;;;4051821;29;20550;-65